Time;durP1;ratioP1;P1;durP2;ratioP2;P2;SDS_P1;SDS_P2;PMS_P1;PMS_P2;Temp;Humidity;BMP_temperature;BMP_pressure;BME280_temperature;BME280_humidity;BME280_pressure;Samples;Min_cycle;Max_cycle;Signal;HPM_P1;HPM_P2
2022/04/06 00:00:40;;;;;;;32.80;15.85;;;8.40;99.90;;;;;;4952262;29;20054;-77
2022/04/06 00:03:06;;;;;;;24.67;14.55;;;8.50;99.90;;;;;;4920410;29;20055;-77
2022/04/06 00:05:31;;;;;;;25.52;13.93;;;8.50;99.90;;;;;;4936463;29;20522;-77
2022/04/06 00:07:57;;;;;;;25.73;15.60;;;8.50;99.90;;;;;;4948954;29;20039;-77
2022/04/06 00:10:22;;;;;;;26.20;14.02;;;8.50;99.90;;;;;;4939837;29;20042;-78
2022/04/06 00:12:48;;;;;;;27.70;15.38;;;8.50;99.90;;;;;;4936154;29;20056;-78
2022/04/06 00:15:13;;;;;;;23.13;14.48;;;8.50;99.90;;;;;;4937934;29;20122;-77
2022/04/06 00:17:40;;;;;;;26.80;15.18;;;8.50;99.90;;;;;;4955529;29;20078;-77
2022/04/06 00:20:06;;;;;;;30.63;15.85;;;8.50;99.90;;;;;;4939295;29;20130;-77
2022/04/06 00:22:32;;;;;;;27.27;15.40;;;8.50;99.90;;;;;;4938743;29;20515;-78
2022/04/06 00:24:58;;;;;;;28.40;15.20;;;8.40;99.90;;;;;;4954882;28;20031;-77
2022/04/06 00:27:24;;;;;;;27.95;15.43;;;8.40;99.90;;;;;;4938094;29;20039;-77
2022/04/06 00:29:49;;;;;;;28.58;15.02;;;8.50;99.90;;;;;;4951684;28;20114;-77
2022/04/06 00:32:15;;;;;;;27.45;15.60;;;8.40;99.90;;;;;;4920136;29;20413;-77
2022/04/06 00:37:24;;;;;;;25.52;13.85;;;8.50;99.90;;;;;;4936055;29;20071;-77
2022/04/06 00:39:50;;;;;;;25.05;14.63;;;8.50;99.90;;;;;;4947810;29;20039;-77
2022/04/06 00:42:16;;;;;;;25.30;14.18;;;8.40;99.90;;;;;;4938918;29;20071;-77
2022/04/06 00:44:41;;;;;;;29.48;14.27;;;8.50;99.90;;;;;;4954950;29;20047;-77
2022/04/06 00:47:07;;;;;;;28.95;15.25;;;8.50;99.90;;;;;;4954889;29;20046;-77
2022/04/06 00:49:33;;;;;;;28.98;14.40;;;8.50;99.90;;;;;;4951420;28;20044;-77
2022/04/06 00:52:02;;;;;;;29.52;13.68;;;8.50;99.90;;;;;;4951252;29;20035;-77
2022/04/06 00:54:29;;;;;;;30.15;14.43;;;8.50;99.90;;;;;;4954296;29;20039;-77
2022/04/06 00:56:56;;;;;;;25.30;13.55;;;8.50;99.90;;;;;;4970386;28;20537;-77
2022/04/06 00:59:21;;;;;;;30.02;14.95;;;8.50;99.90;;;;;;4954268;28;20040;-77
2022/04/06 01:01:49;;;;;;;24.05;13.10;;;8.50;99.90;;;;;;4970733;28;20050;-77
2022/04/06 01:04:15;;;;;;;28.13;14.18;;;8.50;99.90;;;;;;4954179;29;20039;-77
2022/04/06 01:06:41;;;;;;;26.40;12.63;;;8.50;99.90;;;;;;4943199;29;20126;-77
2022/04/06 01:09:07;;;;;;;25.10;12.35;;;8.40;99.90;;;;;;4954212;29;20043;-77
2022/04/06 01:11:34;;;;;;;23.65;12.57;;;8.40;99.90;;;;;;4954365;28;20046;-77
2022/04/06 01:14:00;;;;;;;26.55;13.43;;;8.40;99.90;;;;;;4954403;29;20414;-77
2022/04/06 01:16:26;;;;;;;27.40;12.90;;;8.40;99.90;;;;;;4954475;29;20410;-78
2022/04/06 01:18:51;;;;;;;23.77;11.90;;;8.40;99.90;;;;;;4953990;28;20039;-77
2022/04/06 01:21:17;;;;;;;24.75;11.05;;;8.50;99.90;;;;;;4938069;29;20127;-77
2022/04/06 01:23:44;;;;;;;23.92;11.93;;;8.40;99.90;;;;;;4953716;29;20031;-77
2022/04/06 01:26:10;;;;;;;25.13;11.88;;;8.50;99.90;;;;;;4938146;29;20043;-77
2022/04/06 01:28:37;;;;;;;26.48;11.32;;;8.40;99.90;;;;;;4938405;29;20427;-77
2022/04/06 01:31:03;;;;;;;21.10;11.68;;;8.40;99.90;;;;;;4954355;29;20471;-77
2022/04/06 01:33:29;;;;;;;24.15;10.43;;;8.40;99.90;;;;;;4953566;29;20057;-77
2022/04/06 01:35:56;;;;;;;20.45;10.02;;;8.40;99.90;;;;;;4937362;29;20122;-77
2022/04/06 01:38:22;;;;;;;21.25;10.70;;;8.40;99.90;;;;;;4953952;29;20090;-77
2022/04/06 01:40:48;;;;;;;21.38;9.80;;;8.40;99.90;;;;;;4953896;28;20079;-77
2022/04/06 01:43:13;;;;;;;22.02;10.18;;;8.40;99.90;;;;;;4953643;28;20078;-77
2022/04/06 01:45:39;;;;;;;19.60;10.05;;;8.50;99.90;;;;;;4950973;28;20082;-77
2022/04/06 01:48:05;;;;;;;22.38;9.18;;;8.40;99.90;;;;;;4951829;28;20089;-77
2022/04/06 01:53:14;;;;;;;22.45;9.85;;;8.40;99.90;;;;;;4969542;28;20106;-77
2022/04/06 01:55:40;;;;;;;21.15;8.38;;;8.50;99.90;;;;;;4953693;29;20648;-77
2022/04/06 01:58:06;;;;;;;16.90;8.95;;;8.50;99.90;;;;;;4953599;29;20043;-77
2022/04/06 02:00:32;;;;;;;20.17;8.65;;;8.50;99.90;;;;;;4953285;29;20055;-77
2022/04/06 02:02:57;;;;;;;21.85;8.68;;;8.50;99.90;;;;;;4949633;29;20518;-78
2022/04/06 02:05:23;;;;;;;20.63;8.98;;;8.40;99.90;;;;;;4934375;29;20478;-78
2022/04/06 02:07:50;;;;;;;21.10;9.15;;;8.50;99.90;;;;;;4934290;29;20198;-77
2022/04/06 02:10:17;;;;;;;21.80;9.05;;;8.50;99.90;;;;;;4939916;29;20082;-78
2022/04/06 02:12:43;;;;;;;16.83;9.30;;;8.50;99.90;;;;;;4952393;29;20047;-77
2022/04/06 02:15:10;;;;;;;20.13;8.88;;;8.50;99.90;;;;;;4953368;29;20564;-77
2022/04/06 02:17:37;;;;;;;22.83;9.05;;;8.50;99.90;;;;;;4953175;29;20039;-77
2022/04/06 02:20:03;;;;;;;22.45;9.38;;;8.40;99.90;;;;;;4937322;29;20461;-78
2022/04/06 02:22:28;;;;;;;20.00;8.85;;;8.50;99.90;;;;;;4953010;29;20053;-78
2022/04/06 02:24:54;;;;;;;26.20;9.13;;;8.50;99.90;;;;;;4952747;29;20490;-77
2022/04/06 02:27:20;;;;;;;21.90;8.73;;;8.50;99.90;;;;;;4952508;29;20034;-77
2022/04/06 02:29:45;;;;;;;24.23;8.85;;;8.50;99.90;;;;;;4953324;29;20042;-77
2022/04/06 02:32:12;;;;;;;22.35;8.48;;;8.50;99.90;;;;;;4952947;29;20557;-77
2022/04/06 02:34:38;;;;;;;24.63;9.15;;;8.50;99.90;;;;;;4952617;28;20093;-77
2022/04/06 02:37:03;;;;;;;22.35;8.77;;;8.50;99.90;;;;;;4937005;29;20042;-77
2022/04/06 02:39:29;;;;;;;24.70;9.73;;;8.50;99.90;;;;;;4968239;28;20509;-77
2022/04/06 02:41:54;;;;;;;24.17;9.75;;;8.50;99.90;;;;;;4936604;29;20039;-77
2022/04/06 02:44:20;;;;;;;23.10;9.48;;;8.50;99.90;;;;;;4952515;28;20051;-77
2022/04/06 02:46:50;;;;;;;27.30;11.48;;;8.50;99.90;;;;;;4952739;29;20039;-78
2022/04/06 02:49:16;;;;;;;23.55;9.73;;;8.50;99.90;;;;;;4952227;29;20058;-77
2022/04/06 02:51:42;;;;;;;28.45;11.05;;;8.60;99.90;;;;;;4952654;29;20077;-77
2022/04/06 02:54:08;;;;;;;25.98;10.80;;;8.60;99.90;;;;;;4951786;28;20035;-77
2022/04/06 02:56:34;;;;;;;28.15;12.30;;;8.60;99.90;;;;;;4952582;28;20039;-77
2022/04/06 02:59:01;;;;;;;23.35;12.02;;;8.60;99.90;;;;;;4936716;29;20071;-77
2022/04/06 03:01:27;;;;;;;25.10;11.43;;;8.60;99.90;;;;;;4935888;29;20217;-77
2022/04/06 03:03:52;;;;;;;30.60;12.48;;;8.60;99.90;;;;;;4951866;29;20062;-77
2022/04/06 03:06:18;;;;;;;29.42;12.00;;;8.70;99.90;;;;;;4952300;29;20040;-77
2022/04/06 03:08:44;;;;;;;27.50;13.25;;;8.60;99.90;;;;;;4952208;29;20410;-77
2022/04/06 03:11:10;;;;;;;24.40;12.43;;;8.60;99.90;;;;;;4952659;29;20043;-77
2022/04/06 03:13:35;;;;;;;29.48;12.55;;;8.70;99.90;;;;;;4951400;29;20031;-77
2022/04/06 03:16:01;;;;;;;26.85;14.68;;;8.60;99.90;;;;;;4936397;29;20050;-77
2022/04/06 03:18:26;;;;;;;29.17;12.95;;;8.70;99.90;;;;;;4952132;29;20043;-77
2022/04/06 03:20:52;;;;;;;22.90;12.95;;;8.70;99.90;;;;;;4952470;29;20035;-77
2022/04/06 03:23:18;;;;;;;28.38;14.40;;;8.70;99.90;;;;;;4952337;29;20512;-77
2022/04/06 03:25:43;;;;;;;27.75;14.48;;;8.70;99.90;;;;;;4952240;28;20031;-77
2022/04/06 03:28:09;;;;;;;27.65;13.50;;;8.70;99.90;;;;;;4951671;29;20126;-77
2022/04/06 03:30:36;;;;;;;32.28;13.77;;;8.70;99.90;;;;;;4952474;29;20125;-77
2022/04/06 03:33:02;;;;;;;27.83;13.18;;;8.70;99.90;;;;;;4951718;29;20098;-77
2022/04/06 03:35:28;;;;;;;30.35;12.95;;;8.70;99.90;;;;;;4952176;29;20490;-77
2022/04/06 03:37:53;;;;;;;23.70;12.40;;;8.70;99.90;;;;;;4951984;28;20506;-77
2022/04/06 03:40:19;;;;;;;27.42;12.65;;;8.70;99.90;;;;;;4948124;29;20050;-77
2022/04/06 03:42:45;;;;;;;26.42;11.40;;;8.70;99.90;;;;;;4951566;29;20044;-77
2022/04/06 03:45:11;;;;;;;22.00;11.27;;;8.60;99.90;;;;;;4952071;29;20066;-77
2022/04/06 03:47:37;;;;;;;21.05;11.77;;;8.60;99.90;;;;;;4952084;28;20036;-77
2022/04/06 03:50:04;;;;;;;24.42;12.10;;;8.70;99.90;;;;;;4951860;29;20036;-77
2022/04/06 03:52:30;;;;;;;22.02;10.38;;;8.60;99.90;;;;;;4951930;29;20151;-77
2022/04/06 03:54:56;;;;;;;19.75;9.65;;;8.70;99.90;;;;;;4935403;29;20035;-77
2022/04/06 03:57:22;;;;;;;17.63;9.48;;;8.70;99.90;;;;;;4952510;29;20114;-77
2022/04/06 03:59:48;;;;;;;22.73;9.23;;;8.70;99.90;;;;;;4952005;29;20081;-77
2022/04/06 04:02:13;;;;;;;20.52;9.35;;;8.70;99.90;;;;;;4951624;28;20386;-77
2022/04/06 04:04:39;;;;;;;18.35;8.82;;;8.70;99.90;;;;;;4951412;29;20389;-77
2022/04/06 04:07:07;;;;;;;20.17;9.18;;;8.70;99.90;;;;;;4951822;29;20046;-77
2022/04/06 04:09:33;;;;;;;21.73;8.52;;;8.60;99.90;;;;;;4951498;29;20063;-77
2022/04/06 04:11:58;;;;;;;25.67;9.00;;;8.60;99.90;;;;;;4951908;29;20043;-77
2022/04/06 04:14:24;;;;;;;16.75;7.63;;;8.60;99.90;;;;;;4951564;29;20512;-77
2022/04/06 04:16:50;;;;;;;16.20;7.90;;;8.60;99.90;;;;;;4967941;28;20491;-76
2022/04/06 04:19:19;;;;;;;16.08;8.45;;;8.60;99.90;;;;;;4961000;28;20043;-77
2022/04/06 04:21:44;;;;;;;19.67;8.27;;;8.60;99.90;;;;;;4951643;29;20334;-77
2022/04/06 04:24:10;;;;;;;18.42;8.48;;;8.50;99.90;;;;;;4951282;28;20051;-77
2022/04/06 04:26:38;;;;;;;16.90;8.35;;;8.50;99.90;;;;;;4951690;29;20124;-77
2022/04/06 04:29:04;;;;;;;18.63;8.38;;;8.50;99.90;;;;;;4951756;29;20043;-77
2022/04/06 04:31:30;;;;;;;16.33;7.43;;;8.50;99.90;;;;;;4967508;28;20126;-77
2022/04/06 04:33:57;;;;;;;16.85;7.28;;;8.50;99.90;;;;;;4950600;28;20135;-77
2022/04/06 04:36:22;;;;;;;19.13;7.82;;;8.40;99.90;;;;;;4953227;29;20054;-77
2022/04/06 04:38:48;;;;;;;20.33;8.02;;;8.40;99.90;;;;;;4955123;29;20494;-77
2022/04/06 04:41:14;;;;;;;13.52;7.57;;;8.40;99.90;;;;;;4954948;29;20075;-76
2022/04/06 04:43:40;;;;;;;16.40;7.93;;;8.40;99.90;;;;;;4970864;28;20043;-77
2022/04/06 04:46:07;;;;;;;18.92;8.55;;;8.40;99.90;;;;;;4955020;29;20490;-77
2022/04/06 04:48:33;;;;;;;16.42;7.75;;;8.40;99.90;;;;;;4954628;29;20074;-77
2022/04/06 04:50:58;;;;;;;16.88;8.15;;;8.40;99.90;;;;;;4938857;29;20035;-77
2022/04/06 04:53:25;;;;;;;17.70;7.38;;;8.40;99.90;;;;;;4938790;29;20090;-77
2022/04/06 04:55:50;;;;;;;15.35;7.68;;;8.40;99.90;;;;;;4954742;29;20054;-77
2022/04/06 04:58:16;;;;;;;23.80;8.57;;;8.40;99.90;;;;;;4938513;29;20421;-77
2022/04/06 05:00:42;;;;;;;17.15;8.65;;;8.30;99.90;;;;;;4954633;29;20043;-77
2022/04/06 05:03:08;;;;;;;20.63;7.65;;;8.40;99.90;;;;;;4953973;28;20042;-77
2022/04/06 05:05:35;;;;;;;16.27;7.43;;;8.30;99.90;;;;;;4954524;29;20040;-77
2022/04/06 05:08:00;;;;;;;21.73;7.35;;;8.40;99.90;;;;;;4954505;29;20125;-77
2022/04/06 05:10:27;;;;;;;16.95;7.15;;;8.30;99.90;;;;;;4954430;29;20099;-77
2022/04/06 05:12:53;;;;;;;19.63;6.70;;;8.30;99.90;;;;;;4937759;29;20047;-77
2022/04/06 05:15:19;;;;;;;19.88;6.55;;;8.30;99.90;;;;;;4954438;29;20043;-77
2022/04/06 05:17:45;;;;;;;17.30;6.70;;;8.30;99.90;;;;;;4954045;29;20450;-77
2022/04/06 05:20:11;;;;;;;15.20;6.20;;;8.40;99.90;;;;;;4970128;28;20133;-77
2022/04/06 05:22:38;;;;;;;14.23;6.45;;;8.40;99.90;;;;;;4953951;29;20387;-77
2022/04/06 05:25:04;;;;;;;13.10;5.47;;;8.40;99.90;;;;;;4954153;29;20042;-77
2022/04/06 05:27:31;;;;;;;10.90;5.03;;;8.30;99.90;;;;;;4954192;28;20039;-77
2022/04/06 05:29:57;;;;;;;11.60;5.20;;;8.30;99.90;;;;;;4951276;28;20044;-77
2022/04/06 05:32:23;;;;;;;11.65;4.80;;;8.30;99.90;;;;;;4953880;28;20038;-77
2022/04/06 05:34:48;;;;;;;8.32;4.72;;;8.30;99.90;;;;;;4954027;29;20035;-77
2022/04/06 05:37:14;;;;;;;13.00;4.63;;;8.30;99.90;;;;;;4954044;29;20514;-77
2022/04/06 05:39:40;;;;;;;10.82;3.80;;;8.30;99.90;;;;;;4953468;29;20410;-77
2022/04/06 05:42:06;;;;;;;11.20;3.70;;;8.30;99.90;;;;;;4953864;29;20039;-77
2022/04/06 05:44:31;;;;;;;9.07;3.53;;;8.30;99.90;;;;;;4952279;28;20098;-77
2022/04/06 05:46:57;;;;;;;10.98;4.38;;;8.40;99.90;;;;;;4953566;29;20032;-77
2022/04/06 05:49:22;;;;;;;8.80;4.10;;;8.40;99.90;;;;;;4937846;29;20047;-77
2022/04/06 05:51:49;;;;;;;11.43;3.42;;;8.40;99.90;;;;;;4938095;29;20039;-77
2022/04/06 05:54:14;;;;;;;7.97;3.67;;;8.40;99.90;;;;;;4953382;29;20047;-77
2022/04/06 05:56:40;;;;;;;9.88;3.67;;;8.30;99.90;;;;;;4937901;29;20047;-77
2022/04/06 05:59:05;;;;;;;8.25;2.95;;;8.40;99.90;;;;;;4953298;29;20046;-77
2022/04/06 06:01:31;;;;;;;9.27;3.10;;;8.40;99.90;;;;;;4953627;29;20051;-77
2022/04/06 06:03:56;;;;;;;10.23;3.30;;;8.40;99.90;;;;;;4937252;29;20047;-77
2022/04/06 06:06:22;;;;;;;8.90;2.92;;;8.40;99.90;;;;;;4937519;29;20043;-77
2022/04/06 06:08:48;;;;;;;8.15;2.90;;;8.40;99.90;;;;;;4937164;29;20170;-77
2022/04/06 06:11:14;;;;;;;7.47;3.33;;;8.50;99.90;;;;;;4953385;29;20043;-77
2022/04/06 06:13:40;;;;;;;7.82;2.85;;;8.50;99.90;;;;;;4949521;29;20047;-77
2022/04/06 06:16:05;;;;;;;8.45;3.00;;;8.50;99.90;;;;;;4946103;29;20051;-77
2022/04/06 06:18:31;;;;;;;8.35;3.00;;;8.50;99.90;;;;;;4953263;29;20513;-77
2022/04/06 06:20:59;;;;;;;11.25;3.38;;;8.50;99.90;;;;;;4953007;29;20050;-77
2022/04/06 06:23:24;;;;;;;8.95;2.78;;;8.40;99.90;;;;;;4952709;28;20063;-77
2022/04/06 06:25:50;;;;;;;13.80;4.00;;;8.40;99.90;;;;;;4966581;28;20167;-77
2022/04/06 06:28:15;;;;;;;11.52;3.03;;;8.40;99.90;;;;;;4952428;29;20098;-77
2022/04/06 06:30:42;;;;;;;8.70;2.88;;;8.40;99.90;;;;;;4937659;29;20043;-79
2022/04/06 06:33:07;;;;;;;9.52;3.10;;;8.40;99.90;;;;;;4936467;29;20049;-77
2022/04/06 06:35:33;;;;;;;16.17;3.45;;;8.40;99.90;;;;;;4953388;29;20043;-77
2022/04/06 06:37:59;;;;;;;11.25;3.22;;;8.40;99.90;;;;;;4937167;29;20051;-76
2022/04/06 06:40:27;;;;;;;9.63;3.20;;;8.40;99.90;;;;;;4952225;28;20058;-75
2022/04/06 06:42:53;;;;;;;10.27;3.33;;;8.40;99.90;;;;;;4951618;29;20094;-76
2022/04/06 06:45:19;;;;;;;9.52;3.55;;;8.30;99.90;;;;;;4952167;28;20438;-75
2022/04/06 06:47:46;;;;;;;10.98;3.90;;;8.30;99.90;;;;;;4936475;29;20486;-76
2022/04/06 06:50:14;;;;;;;8.77;3.30;;;8.20;99.90;;;;;;4968753;28;20079;-80
2022/04/06 06:52:40;;;;;;;10.52;2.83;;;8.30;99.90;;;;;;4952994;29;20042;-76
2022/04/06 06:55:07;;;;;;;13.15;3.45;;;8.30;99.90;;;;;;4952341;28;20043;-76
2022/04/06 06:57:34;;;;;;;10.27;3.55;;;8.30;99.90;;;;;;4951899;29;20047;-77
2022/04/06 07:00:00;;;;;;;10.02;3.40;;;8.30;99.90;;;;;;4951472;29;20538;-76
2022/04/06 07:02:25;;;;;;;6.82;3.13;;;8.40;99.90;;;;;;4951158;29;20123;-76
2022/04/06 07:04:51;;;;;;;7.88;3.65;;;8.40;99.90;;;;;;4950209;29;20028;-76
2022/04/06 07:07:16;;;;;;;9.38;3.20;;;8.40;99.90;;;;;;4950377;29;20473;-76
2022/04/06 07:09:42;;;;;;;11.30;3.70;;;8.40;99.90;;;;;;4950611;29;20035;-76
2022/04/06 07:12:08;;;;;;;10.23;3.80;;;8.40;99.90;;;;;;4950366;29;20043;-76
2022/04/06 07:14:34;;;;;;;12.15;3.75;;;8.50;99.90;;;;;;4950531;29;20043;-76
2022/04/06 07:17:00;;;;;;;11.80;3.80;;;8.50;99.90;;;;;;4950699;29;20414;-76
2022/04/06 07:19:26;;;;;;;11.07;4.20;;;8.50;99.90;;;;;;4951581;29;20099;-76
2022/04/06 07:21:51;;;;;;;10.98;4.30;;;8.50;99.90;;;;;;4951996;28;20043;-76
2022/04/06 07:24:17;;;;;;;10.50;4.75;;;8.50;99.90;;;;;;4967926;28;20533;-76
2022/04/06 07:26:43;;;;;;;15.88;4.82;;;8.60;99.90;;;;;;4935953;29;20035;-76
2022/04/06 07:29:11;;;;;;;13.50;4.57;;;8.60;99.90;;;;;;4935555;29;20035;-76
2022/04/06 07:31:38;;;;;;;12.85;4.53;;;8.50;99.90;;;;;;4951256;29;20133;-76
2022/04/06 07:34:04;;;;;;;12.75;4.70;;;8.50;99.90;;;;;;4927485;29;20043;-75
2022/04/06 07:36:30;;;;;;;14.30;5.00;;;8.50;99.90;;;;;;4951190;29;20043;-76
2022/04/06 07:38:55;;;;;;;15.18;5.47;;;8.40;99.90;;;;;;4951387;29;20055;-76
2022/04/06 07:41:24;;;;;;;15.55;5.72;;;8.50;99.90;;;;;;4951940;29;20046;-76
2022/04/06 07:43:50;;;;;;;13.75;5.82;;;8.50;99.90;;;;;;4951744;29;20054;-76
2022/04/06 07:46:15;;;;;;;13.52;6.50;;;8.50;99.90;;;;;;4952156;28;20051;-75
2022/04/06 07:48:41;;;;;;;10.55;5.90;;;8.50;99.90;;;;;;4951786;29;20031;-73
2022/04/06 07:51:07;;;;;;;14.02;5.78;;;8.50;99.90;;;;;;4951186;29;20113;-75
2022/04/06 07:53:32;;;;;;;14.48;6.15;;;8.60;99.90;;;;;;4949417;28;20496;-76
2022/04/06 07:55:58;;;;;;;14.02;6.25;;;8.50;99.90;;;;;;4962659;28;20046;-75
2022/04/06 07:58:24;;;;;;;11.95;5.85;;;8.60;99.90;;;;;;4948121;29;20040;-75
2022/04/06 08:00:50;;;;;;;14.00;6.18;;;8.70;99.90;;;;;;4952341;28;20043;-75
2022/04/06 08:03:15;;;;;;;11.60;6.03;;;8.70;99.90;;;;;;4935129;29;20442;-75
2022/04/06 08:05:41;;;;;;;14.13;6.00;;;8.80;99.90;;;;;;4952557;28;20071;-75
2022/04/06 08:08:07;;;;;;;14.25;6.05;;;8.80;99.90;;;;;;4961966;28;20028;-75
2022/04/06 08:10:32;;;;;;;8.95;5.13;;;8.80;99.90;;;;;;4936439;29;20043;-76
2022/04/06 08:12:58;;;;;;;12.80;5.40;;;8.90;99.90;;;;;;4960080;28;20417;-76
2022/04/06 08:15:24;;;;;;;11.93;5.05;;;8.90;99.90;;;;;;4975032;28;20054;-75
2022/04/06 08:17:49;;;;;;;11.35;5.65;;;8.90;99.90;;;;;;4972798;28;20050;-75
2022/04/06 08:23:55;;;;;;;12.52;4.82;;;8.80;99.90;;;;;;4954476;28;20126;-75
2022/04/06 08:26:21;;;;;;;13.60;5.25;;;8.80;99.90;;;;;;4939223;29;20584;-76
2022/04/06 08:28:47;;;;;;;12.50;5.10;;;8.90;99.90;;;;;;4955328;29;20071;-75
2022/04/06 08:31:13;;;;;;;14.45;4.82;;;8.90;99.90;;;;;;4970884;28;20043;-75
2022/04/06 08:33:39;;;;;;;13.55;4.85;;;9.00;99.90;;;;;;4938191;29;20086;-76
2022/04/06 08:36:06;;;;;;;11.48;4.32;;;9.00;99.90;;;;;;4954925;29;20502;-75
2022/04/06 08:38:32;;;;;;;10.52;4.10;;;8.90;99.90;;;;;;4938770;29;20501;-77
2022/04/06 08:40:57;;;;;;;10.27;4.05;;;8.90;99.90;;;;;;4955146;28;20047;-77
2022/04/06 08:43:26;;;;;;;12.68;3.88;;;8.80;99.90;;;;;;4954266;29;20049;-77
2022/04/06 08:45:54;;;;;;;11.35;4.25;;;8.80;99.90;;;;;;4954651;29;20473;-77
2022/04/06 08:48:20;;;;;;;9.75;4.22;;;8.70;99.90;;;;;;4971300;28;20445;-77
2022/04/06 08:50:47;;;;;;;11.30;3.83;;;8.70;99.90;;;;;;4954222;29;20058;-76
2022/04/06 08:53:13;;;;;;;12.52;4.30;;;8.80;99.90;;;;;;4962770;28;20388;-77
2022/04/06 08:55:38;;;;;;;11.10;4.55;;;8.70;99.90;;;;;;4935666;29;20040;-76
2022/04/06 08:58:05;;;;;;;10.00;4.07;;;8.60;99.90;;;;;;4944560;29;20047;-76
2022/04/06 09:00:32;;;;;;;7.15;4.25;;;8.70;99.90;;;;;;4951620;29;20494;-77
2022/04/06 09:02:58;;;;;;;10.98;4.85;;;8.60;99.90;;;;;;4954052;29;20122;-77
2022/04/06 09:05:27;;;;;;;12.45;4.97;;;8.60;99.90;;;;;;4938571;29;20035;-77
2022/04/06 09:07:53;;;;;;;9.65;4.35;;;8.60;99.90;;;;;;4954866;29;20078;-73
2022/04/06 09:10:37;;;;;;;8.90;4.20;;;8.60;99.90;;;;;;4954491;28;20071;-74
2022/04/06 09:13:23;;;;;;;10.98;4.68;;;8.70;99.90;;;;;;4942058;29;20050;-74
2022/04/06 09:15:53;;;;;;;9.10;4.72;;;8.80;99.90;;;;;;4954157;29;20401;-75
2022/04/06 09:18:24;;;;;;;9.52;4.25;;;8.90;99.90;;;;;;4950544;28;20039;-74
2022/04/06 09:20:59;;;;;;;12.00;5.13;;;9.00;99.90;;;;;;4950322;28;20043;-74
2022/04/06 09:23:25;;;;;;;9.63;5.05;;;9.00;99.90;;;;;;4950824;29;20126;-74
2022/04/06 09:25:50;;;;;;;10.48;5.50;;;9.10;99.90;;;;;;4935010;29;20122;-74
2022/04/06 09:28:16;;;;;;;11.23;5.72;;;9.20;99.90;;;;;;4934912;29;20048;-74
2022/04/06 09:30:43;;;;;;;9.35;5.80;;;9.20;99.90;;;;;;4953087;29;20040;-74
2022/04/06 09:33:14;;;;;;;12.88;6.32;;;9.20;99.90;;;;;;4952921;29;20055;-74
2022/04/06 09:35:41;;;;;;;14.60;6.50;;;9.30;99.90;;;;;;4953929;29;20497;-75
2022/04/06 09:38:23;;;;;;;8.68;5.72;;;9.40;99.90;;;;;;4953884;29;20478;-74
2022/04/06 09:40:51;;;;;;;10.67;5.87;;;9.40;99.90;;;;;;4953338;29;20418;-75
2022/04/06 09:43:31;;;;;;;10.57;6.35;;;9.40;99.90;;;;;;4952981;28;20039;-74
2022/04/06 09:49:13;;;;;;;12.80;6.37;;;9.50;99.90;;;;;;4953329;29;20078;-75
2022/04/06 09:51:41;;;;;;;12.80;7.00;;;9.50;99.90;;;;;;4969796;28;20078;-75
2022/04/06 09:54:09;;;;;;;12.65;6.47;;;9.60;99.90;;;;;;4954447;28;20402;-75
2022/04/06 09:56:36;;;;;;;11.20;6.63;;;9.70;99.90;;;;;;4953327;28;20086;-75
2022/04/06 09:59:03;;;;;;;9.93;6.65;;;9.70;99.90;;;;;;4953752;29;20130;-75
2022/04/06 10:01:34;;;;;;;10.73;7.63;;;9.70;99.90;;;;;;4937481;29;20047;-75
2022/04/06 10:04:11;;;;;;;15.10;7.30;;;9.70;99.90;;;;;;4959076;28;20047;-75
2022/04/06 10:06:38;;;;;;;13.85;7.53;;;9.60;99.90;;;;;;4941518;29;20038;-75
2022/04/06 10:09:06;;;;;;;15.73;7.50;;;9.70;99.90;;;;;;4936653;29;20058;-75
2022/04/06 10:11:39;;;;;;;11.50;7.15;;;9.70;99.90;;;;;;4952189;28;20122;-75
2022/04/06 10:14:06;;;;;;;15.23;8.32;;;9.60;99.90;;;;;;4952298;29;20035;-75
2022/04/06 10:16:36;;;;;;;11.05;7.40;;;9.70;99.90;;;;;;4967235;28;20054;-75
2022/04/06 10:19:02;;;;;;;14.38;6.95;;;9.90;99.90;;;;;;4953223;29;20043;-75
2022/04/06 10:21:59;;;;;;;13.55;6.43;;;10.00;99.90;;;;;;4952354;29;20043;-75
2022/04/06 10:24:24;;;;;;;10.98;6.15;;;10.10;99.90;;;;;;4935041;29;20055;-77
2022/04/06 10:27:03;;;;;;;10.57;6.10;;;10.00;99.90;;;;;;4953095;29;20053;-76
2022/04/06 10:29:28;;;;;;;10.88;6.38;;;10.00;99.90;;;;;;4952736;28;20039;-77
2022/04/06 10:31:54;;;;;;;10.88;6.38;;;9.90;99.90;;;;;;4952169;29;20069;-77
2022/04/06 10:34:32;;;;;;;16.30;7.88;;;9.90;99.90;;;;;;4952576;29;20077;-75
2022/04/06 10:37:12;;;;;;;9.35;7.10;;;9.80;99.90;;;;;;4937255;29;20047;-76
2022/04/06 10:40:04;;;;;;;10.82;7.43;;;9.80;99.90;;;;;;4952062;29;20051;-76
2022/04/06 10:42:33;;;;;;;13.40;7.75;;;9.80;99.90;;;;;;4931709;29;20272;-76
2022/04/06 10:44:59;;;;;;;9.73;7.90;;;9.80;99.90;;;;;;4947420;29;20047;-76
2022/04/06 10:47:25;;;;;;;10.68;7.63;;;9.70;99.90;;;;;;4952402;28;20081;-76
2022/04/06 10:50:15;;;;;;;10.57;8.23;;;9.70;99.90;;;;;;4952114;29;20074;-76
2022/04/06 10:52:43;;;;;;;13.27;7.63;;;9.70;99.90;;;;;;4952286;28;20053;-75
2022/04/06 10:55:09;;;;;;;11.30;8.32;;;9.70;99.90;;;;;;4952569;29;20089;-76
2022/04/06 10:58:02;;;;;;;12.07;8.00;;;9.70;99.90;;;;;;4952016;29;20054;-76
2022/04/06 11:00:28;;;;;;;12.35;7.88;;;9.70;99.90;;;;;;4952307;28;20051;-75
2022/04/06 11:02:57;;;;;;;16.20;8.55;;;9.70;99.90;;;;;;4951746;28;20056;-76
2022/04/06 11:05:45;;;;;;;12.35;9.13;;;9.70;99.90;;;;;;4952268;29;20039;-76
2022/04/06 11:11:43;;;;;;;12.93;9.10;;;9.70;99.90;;;;;;4952322;29;20089;-76
2022/04/06 11:14:09;;;;;;;14.68;9.60;;;9.70;99.90;;;;;;4951742;29;20498;-76
2022/04/06 11:16:43;;;;;;;12.55;9.55;;;9.60;99.90;;;;;;4936281;29;20046;-76
2022/04/06 11:19:09;;;;;;;16.00;9.60;;;9.60;99.90;;;;;;4952022;29;20046;-76
2022/04/06 11:21:48;;;;;;;18.52;10.55;;;9.70;99.90;;;;;;4952182;28;20043;-76
2022/04/06 11:24:27;;;;;;;13.02;10.27;;;9.90;99.90;;;;;;4951254;29;20032;-76
2022/04/06 11:26:54;;;;;;;14.80;9.82;;;10.20;99.90;;;;;;4952310;29;20036;-76
2022/04/06 11:29:25;;;;;;;15.48;9.93;;;10.40;99.90;;;;;;4951316;28;20054;-78
2022/04/06 11:31:59;;;;;;;14.18;9.90;;;10.50;99.90;;;;;;4952091;29;20035;-76
2022/04/06 11:34:36;;;;;;;16.27;9.82;;;10.60;99.90;;;;;;4935063;29;20047;-75
2022/04/06 11:37:03;;;;;;;15.77;9.60;;;10.70;99.90;;;;;;4935510;29;20040;-75
2022/04/06 11:39:30;;;;;;;18.60;10.13;;;10.70;99.90;;;;;;4952174;29;20047;-76
2022/04/06 11:41:56;;;;;;;10.68;8.65;;;10.80;99.90;;;;;;4953578;28;20246;-75
2022/04/06 11:44:24;;;;;;;17.60;11.25;;;10.60;99.90;;;;;;4955246;29;20051;-75
2022/04/06 11:46:51;;;;;;;17.65;11.20;;;10.50;99.90;;;;;;4956005;29;20043;-75
2022/04/06 11:49:26;;;;;;;16.60;10.32;;;10.40;99.90;;;;;;4952620;29;20498;-75
2022/04/06 11:51:57;;;;;;;15.57;11.13;;;10.60;99.90;;;;;;4936804;29;20048;-75
2022/04/06 11:54:23;;;;;;;17.90;11.38;;;10.80;99.90;;;;;;4940161;29;20062;-75
2022/04/06 11:56:53;;;;;;;17.27;10.80;;;11.10;99.90;;;;;;4955498;29;20043;-75
2022/04/06 11:59:22;;;;;;;15.57;9.10;;;11.40;99.90;;;;;;4956071;29;20402;-75
2022/04/06 12:01:47;;;;;;;15.27;9.70;;;11.40;99.90;;;;;;4939904;29;20486;-75
2022/04/06 12:04:23;;;;;;;12.95;9.77;;;11.40;99.90;;;;;;4971579;28;20040;-75
2022/04/06 12:06:50;;;;;;;15.82;9.68;;;11.30;99.90;;;;;;4955603;29;20039;-75
2022/04/06 12:09:16;;;;;;;15.88;9.57;;;11.40;99.90;;;;;;4955495;28;20039;-75
2022/04/06 12:11:42;;;;;;;16.42;9.27;;;11.50;99.90;;;;;;4955399;28;20036;-75
2022/04/06 12:14:10;;;;;;;16.33;8.77;;;11.40;99.90;;;;;;4955197;29;20082;-75
2022/04/06 12:16:38;;;;;;;12.68;8.35;;;11.40;99.90;;;;;;4966112;28;20126;-75
2022/04/06 12:19:08;;;;;;;14.90;8.40;;;11.30;99.90;;;;;;4968600;28;20146;-75
2022/04/06 12:21:41;;;;;;;13.07;8.73;;;11.20;99.90;;;;;;4968311;28;20044;-74
2022/04/06 12:24:06;;;;;;;;;;;11.10;99.90;;;;;;4971422;28;20105;-75
2022/04/06 12:26:45;;;;;;;15.20;8.77;;;11.10;99.90;;;;;;4955463;29;19918;-75
2022/04/06 12:29:15;;;;;;;18.83;9.70;;;11.20;99.90;;;;;;4955357;29;20047;-75
2022/04/06 12:31:42;;;;;;;14.27;8.82;;;11.20;99.90;;;;;;4954934;29;20043;-75
2022/04/06 12:34:09;;;;;;;12.15;9.00;;;11.20;99.90;;;;;;4954628;29;20130;-74
2022/04/06 12:36:35;;;;;;;14.88;9.50;;;11.10;99.90;;;;;;4955082;28;20047;-75
2022/04/06 12:39:14;;;;;;;12.70;9.27;;;11.10;99.90;;;;;;4955239;28;20046;-75
2022/04/06 12:41:52;;;;;;;13.13;9.32;;;11.00;99.90;;;;;;4954772;29;20094;-74
2022/04/06 12:44:19;;;;;;;15.38;9.98;;;11.20;99.90;;;;;;4954685;29;20076;-75
2022/04/06 12:46:46;;;;;;;16.13;10.25;;;11.40;99.90;;;;;;4955122;29;20039;-75
2022/04/06 12:49:27;;;;;;;12.70;9.07;;;11.50;99.90;;;;;;4955180;28;20051;-75
2022/04/06 12:52:22;;;;;;;16.60;8.07;;;11.50;99.90;;;;;;4954896;29;20417;-75
2022/04/06 12:54:50;;;;;;;9.77;7.95;;;11.40;99.90;;;;;;4953956;28;20117;-75
2022/04/06 12:57:25;;;;;;;13.10;8.80;;;11.30;99.90;;;;;;4955063;29;20071;-75
2022/04/06 13:00:09;;;;;;;11.57;8.55;;;11.10;99.90;;;;;;4954009;29;20051;-74
2022/04/06 13:02:48;;;;;;;11.75;8.23;;;11.00;99.90;;;;;;4942227;29;20042;-75